Terminal Aerodrome Forecast
Issued by NWS Upton, NY

Home | Current Version | Previous Version | Text Only | Print | Product List | Glossary On
Versions: 1 2 3 4 5 6 7 8 9 10 11 12 13 14 15 16 17 18 19 20 21 22 23 24 25
000
FTUS41 KOKX 162300
TAFBDR
TAF
KBDR 162330Z 1700/1724 VRB03KT P6SM BKN080
     FM170400 VRB03KT P6SM FEW250
     FM171200 36006KT P6SM FEW250
     FM171600 20008KT P6SM SCT050 SCT250=

USA.gov is the U.S. government's official web portal to all federal, state and local government web resources and services.